Terminal Aerodrome Forecast
Issued by NWS Louisville, KY

Home | Current Version | Previous Version | Text Only | Print | Product List | Glossary On
Versions: 1 2 3 4 5 6 7 8 9 10 11 12 13 14
678
FTUS43 KLMK 262133 AAB
TAFLEX
TAF AMD
KLEX 262133Z 2622/2718 19008KT 5SM -RA VCTS SCT025CB BKN050
     FM262330 18005KT 6SM HZ SCT050 BKN100
     FM271000 VRB03KT 4SM BR SCT250
     FM271400 19010KT P6SM SCT050=

USA.gov is the U.S. government's official web portal to all federal, state and local government web resources and services.